sensor_id;sensor_type;location;lat;lon;timestamp;temperature;humidity
63897;DHT22;50063;52.084;5.414;2022-10-15T00:01:28;12.80;99.90
63897;DHT22;50063;52.084;5.414;2022-10-15T00:03:54;12.90;99.90
63897;DHT22;50063;52.084;5.414;2022-10-15T00:06:23;12.90;99.90
63897;DHT22;50063;52.084;5.414;2022-10-15T00:08:50;12.90;99.90
63897;DHT22;50063;52.084;5.414;2022-10-15T00:11:17;13.00;99.90
63897;DHT22;50063;52.084;5.414;2022-10-15T00:13:44;13.00;99.90
63897;DHT22;50063;52.084;5.414;2022-10-15T00:16:13;13.10;99.90
63897;DHT22;50063;52.084;5.414;2022-10-15T00:18:39;13.10;99.90
63897;DHT22;50063;52.084;5.414;2022-10-15T00:21:08;13.10;99.90
63897;DHT22;50063;52.084;5.414;2022-10-15T00:23:36;13.10;99.90
63897;DHT22;50063;52.084;5.414;2022-10-15T00:26:04;13.10;99.90
63897;DHT22;50063;52.084;5.414;2022-10-15T00:28:31;13.10;99.90
63897;DHT22;50063;52.084;5.414;2022-10-15T00:31:00;13.20;99.90
63897;DHT22;50063;52.084;5.414;2022-10-15T00:33:27;13.20;99.90
63897;DHT22;50063;52.084;5.414;2022-10-15T00:35:57;13.20;99.90
63897;DHT22;50063;52.084;5.414;2022-10-15T00:38:24;13.30;99.90
63897;DHT22;50063;52.084;5.414;2022-10-15T00:40:50;13.30;99.90
63897;DHT22;50063;52.084;5.414;2022-10-15T00:43:33;13.30;99.90
63897;DHT22;50063;52.084;5.414;2022-10-15T00:46:00;13.40;99.90
63897;DHT22;50063;52.084;5.414;2022-10-15T00:48:27;13.40;99.90
63897;DHT22;50063;52.084;5.414;2022-10-15T00:50:54;13.40;99.90
63897;DHT22;50063;52.084;5.414;2022-10-15T00:53:21;13.40;99.90
63897;DHT22;50063;52.084;5.414;2022-10-15T00:55:48;13.40;99.90
63897;DHT22;50063;52.084;5.414;2022-10-15T00:58:16;13.50;99.90
63897;DHT22;50063;52.084;5.414;2022-10-15T01:00:50;13.50;99.90
63897;DHT22;50063;52.084;5.414;2022-10-15T01:03:17;13.50;99.90
63897;DHT22;50063;52.084;5.414;2022-10-15T01:05:43;13.50;99.90
63897;DHT22;50063;52.084;5.414;2022-10-15T01:08:12;13.60;99.90
63897;DHT22;50063;52.084;5.414;2022-10-15T01:13:13;13.60;99.90
63897;DHT22;50063;52.084;5.414;2022-10-15T01:15:44;13.60;99.90
63897;DHT22;50063;52.084;5.414;2022-10-15T01:18:14;13.60;99.90
63897;DHT22;50063;52.084;5.414;2022-10-15T01:26:06;13.60;99.90
63897;DHT22;50063;52.084;5.414;2022-10-15T01:31:15;13.60;99.90
63897;DHT22;50063;52.084;5.414;2022-10-15T01:33:44;13.50;99.90
63897;DHT22;50063;52.084;5.414;2022-10-15T01:36:30;13.50;99.90
63897;DHT22;50063;52.084;5.414;2022-10-15T01:39:07;13.50;99.90
63897;DHT22;50063;52.084;5.414;2022-10-15T01:41:42;13.40;99.90
63897;DHT22;50063;52.084;5.414;2022-10-15T01:44:11;13.40;99.90
63897;DHT22;50063;52.084;5.414;2022-10-15T01:49:06;13.40;99.90
63897;DHT22;50063;52.084;5.414;2022-10-15T01:51:33;13.30;99.90
63897;DHT22;50063;52.084;5.414;2022-10-15T01:54:00;13.30;99.90
63897;DHT22;50063;52.084;5.414;2022-10-15T01:56:28;13.30;99.90
63897;DHT22;50063;52.084;5.414;2022-10-15T01:58:56;13.20;99.90
63897;DHT22;50063;52.084;5.414;2022-10-15T02:01:23;13.30;99.90
63897;DHT22;50063;52.084;5.414;2022-10-15T02:03:51;13.20;99.90
63897;DHT22;50063;52.084;5.414;2022-10-15T02:06:22;13.20;99.90
63897;DHT22;50063;52.084;5.414;2022-10-15T02:11:23;13.10;99.90
63897;DHT22;50063;52.084;5.414;2022-10-15T02:13:52;13.10;99.90
63897;DHT22;50063;52.084;5.414;2022-10-15T02:16:24;13.10;99.90
63897;DHT22;50063;52.084;5.414;2022-10-15T02:21:25;13.00;99.90
63897;DHT22;50063;52.084;5.414;2022-10-15T02:24:14;13.00;99.90
63897;DHT22;50063;52.084;5.414;2022-10-15T02:26:42;13.00;99.90
63897;DHT22;50063;52.084;5.414;2022-10-15T02:29:10;13.00;99.90
63897;DHT22;50063;52.084;5.414;2022-10-15T02:31:40;13.00;99.90
63897;DHT22;50063;52.084;5.414;2022-10-15T02:34:08;13.00;99.90
63897;DHT22;50063;52.084;5.414;2022-10-15T02:36:37;13.00;99.90
63897;DHT22;50063;52.084;5.414;2022-10-15T02:39:05;13.00;99.90
63897;DHT22;50063;52.084;5.414;2022-10-15T02:41:33;13.00;99.90
63897;DHT22;50063;52.084;5.414;2022-10-15T02:44:01;13.00;99.90
63897;DHT22;50063;52.084;5.414;2022-10-15T02:46:28;13.00;99.90
63897;DHT22;50063;52.084;5.414;2022-10-15T02:48:55;13.00;99.90
63897;DHT22;50063;52.084;5.414;2022-10-15T02:51:22;13.00;99.90
63897;DHT22;50063;52.084;5.414;2022-10-15T02:53:48;13.00;99.90
63897;DHT22;50063;52.084;5.414;2022-10-15T02:56:15;12.90;99.90
63897;DHT22;50063;52.084;5.414;2022-10-15T02:58:42;12.90;99.90
63897;DHT22;50063;52.084;5.414;2022-10-15T03:01:08;12.90;99.90
63897;DHT22;50063;52.084;5.414;2022-10-15T03:03:35;12.90;99.90
63897;DHT22;50063;52.084;5.414;2022-10-15T03:06:02;12.90;99.90
63897;DHT22;50063;52.084;5.414;2022-10-15T03:08:28;12.80;99.90
63897;DHT22;50063;52.084;5.414;2022-10-15T03:10:55;12.80;99.90
63897;DHT22;50063;52.084;5.414;2022-10-15T03:13:21;12.80;99.90
63897;DHT22;50063;52.084;5.414;2022-10-15T03:15:48;12.70;99.90
63897;DHT22;50063;52.084;5.414;2022-10-15T03:18:15;12.70;99.90
63897;DHT22;50063;52.084;5.414;2022-10-15T03:20:41;12.70;99.90
63897;DHT22;50063;52.084;5.414;2022-10-15T03:23:08;12.70;99.90
63897;DHT22;50063;52.084;5.414;2022-10-15T03:25:35;12.60;99.90
63897;DHT22;50063;52.084;5.414;2022-10-15T03:28:02;12.60;99.90
63897;DHT22;50063;52.084;5.414;2022-10-15T03:30:28;12.60;99.90
63897;DHT22;50063;52.084;5.414;2022-10-15T03:32:55;12.50;99.90
63897;DHT22;50063;52.084;5.414;2022-10-15T03:35:21;12.50;99.90
63897;DHT22;50063;52.084;5.414;2022-10-15T03:37:48;12.50;99.90
63897;DHT22;50063;52.084;5.414;2022-10-15T03:40:15;12.50;99.90
63897;DHT22;50063;52.084;5.414;2022-10-15T03:42:41;12.50;99.90
63897;DHT22;50063;52.084;5.414;2022-10-15T03:45:08;12.40;99.90
63897;DHT22;50063;52.084;5.414;2022-10-15T03:47:34;12.40;99.90
63897;DHT22;50063;52.084;5.414;2022-10-15T03:50:01;12.40;99.90
63897;DHT22;50063;52.084;5.414;2022-10-15T03:52:27;12.30;99.90
63897;DHT22;50063;52.084;5.414;2022-10-15T03:54:57;12.30;99.90
63897;DHT22;50063;52.084;5.414;2022-10-15T03:57:23;12.30;99.90
63897;DHT22;50063;52.084;5.414;2022-10-15T03:59:50;12.20;99.90
63897;DHT22;50063;52.084;5.414;2022-10-15T04:02:16;12.20;99.90
63897;DHT22;50063;52.084;5.414;2022-10-15T04:04:43;12.20;99.90
63897;DHT22;50063;52.084;5.414;2022-10-15T04:07:09;12.20;99.90
63897;DHT22;50063;52.084;5.414;2022-10-15T04:09:36;12.20;99.90
63897;DHT22;50063;52.084;5.414;2022-10-15T04:12:02;12.20;99.90
63897;DHT22;50063;52.084;5.414;2022-10-15T04:14:29;12.20;99.90
63897;DHT22;50063;52.084;5.414;2022-10-15T04:16:56;12.10;99.90
63897;DHT22;50063;52.084;5.414;2022-10-15T04:19:24;12.10;99.90
63897;DHT22;50063;52.084;5.414;2022-10-15T04:21:50;12.10;99.90
63897;DHT22;50063;52.084;5.414;2022-10-15T04:24:17;12.00;99.90
63897;DHT22;50063;52.084;5.414;2022-10-15T04:26:43;12.00;99.90
63897;DHT22;50063;52.084;5.414;2022-10-15T04:29:10;12.00;99.90
63897;DHT22;50063;52.084;5.414;2022-10-15T04:31:36;12.00;99.90
63897;DHT22;50063;52.084;5.414;2022-10-15T04:34:03;12.00;99.90
63897;DHT22;50063;52.084;5.414;2022-10-15T04:36:30;12.00;99.90
63897;DHT22;50063;52.084;5.414;2022-10-15T04:38:56;12.00;99.90
63897;DHT22;50063;52.084;5.414;2022-10-15T04:41:23;12.10;99.90
63897;DHT22;50063;52.084;5.414;2022-10-15T04:43:49;12.10;99.90
63897;DHT22;50063;52.084;5.414;2022-10-15T04:46:16;12.10;99.90
63897;DHT22;50063;52.084;5.414;2022-10-15T04:48:42;12.10;99.90
63897;DHT22;50063;52.084;5.414;2022-10-15T04:51:10;12.20;99.90
63897;DHT22;50063;52.084;5.414;2022-10-15T04:53:37;12.20;99.90
63897;DHT22;50063;52.084;5.414;2022-10-15T04:56:05;12.30;99.90
63897;DHT22;50063;52.084;5.414;2022-10-15T04:58:32;12.40;99.90
63897;DHT22;50063;52.084;5.414;2022-10-15T05:01:02;12.40;99.90
63897;DHT22;50063;52.084;5.414;2022-10-15T05:03:29;12.50;99.90
63897;DHT22;50063;52.084;5.414;2022-10-15T05:06:15;12.70;99.90
63897;DHT22;50063;52.084;5.414;2022-10-15T05:08:42;12.70;99.90
63897;DHT22;50063;52.084;5.414;2022-10-15T05:11:19;12.80;99.90
63897;DHT22;50063;52.084;5.414;2022-10-15T05:13:45;12.90;99.90
63897;DHT22;50063;52.084;5.414;2022-10-15T05:16:25;12.80;99.90
63897;DHT22;50063;52.084;5.414;2022-10-15T05:18:54;12.90;99.90
63897;DHT22;50063;52.084;5.414;2022-10-15T05:21:21;13.00;99.90
63897;DHT22;50063;52.084;5.414;2022-10-15T05:23:48;13.00;99.90
63897;DHT22;50063;52.084;5.414;2022-10-15T05:26:16;13.10;99.90
63897;DHT22;50063;52.084;5.414;2022-10-15T05:28:44;13.10;99.90
63897;DHT22;50063;52.084;5.414;2022-10-15T05:31:12;13.10;99.90
63897;DHT22;50063;52.084;5.414;2022-10-15T05:33:45;13.20;99.90
63897;DHT22;50063;52.084;5.414;2022-10-15T05:36:24;13.30;99.90
63897;DHT22;50063;52.084;5.414;2022-10-15T05:38:52;13.30;99.90
63897;DHT22;50063;52.084;5.414;2022-10-15T05:41:19;13.30;99.90
63897;DHT22;50063;52.084;5.414;2022-10-15T05:43:46;13.40;99.90
63897;DHT22;50063;52.084;5.414;2022-10-15T05:46:13;13.40;99.90
63897;DHT22;50063;52.084;5.414;2022-10-15T05:48:40;13.50;99.90
63897;DHT22;50063;52.084;5.414;2022-10-15T05:51:07;13.50;99.90
63897;DHT22;50063;52.084;5.414;2022-10-15T05:53:35;13.60;99.90
63897;DHT22;50063;52.084;5.414;2022-10-15T05:56:03;13.60;99.90
63897;DHT22;50063;52.084;5.414;2022-10-15T05:58:31;13.60;99.90
63897;DHT22;50063;52.084;5.414;2022-10-15T06:01:07;13.60;99.90
63897;DHT22;50063;52.084;5.414;2022-10-15T06:03:34;13.70;99.90
63897;DHT22;50063;52.084;5.414;2022-10-15T06:06:01;13.70;99.90
63897;DHT22;50063;52.084;5.414;2022-10-15T06:08:28;13.70;99.90
63897;DHT22;50063;52.084;5.414;2022-10-15T06:11:01;13.70;99.90
63897;DHT22;50063;52.084;5.414;2022-10-15T06:13:36;13.70;99.90
63897;DHT22;50063;52.084;5.414;2022-10-15T06:16:03;13.80;99.90
63897;DHT22;50063;52.084;5.414;2022-10-15T06:18:30;13.70;99.90
63897;DHT22;50063;52.084;5.414;2022-10-15T06:20:56;13.70;99.90
63897;DHT22;50063;52.084;5.414;2022-10-15T06:23:23;13.80;99.90
63897;DHT22;50063;52.084;5.414;2022-10-15T06:25:50;13.80;99.90
63897;DHT22;50063;52.084;5.414;2022-10-15T06:28:16;13.90;99.90
63897;DHT22;50063;52.084;5.414;2022-10-15T06:30:43;13.90;99.90
63897;DHT22;50063;52.084;5.414;2022-10-15T06:33:09;13.90;99.90
63897;DHT22;50063;52.084;5.414;2022-10-15T06:35:36;13.90;99.90
63897;DHT22;50063;52.084;5.414;2022-10-15T06:38:03;14.00;99.90
63897;DHT22;50063;52.084;5.414;2022-10-15T06:40:30;14.00;99.90
63897;DHT22;50063;52.084;5.414;2022-10-15T06:43:07;14.00;99.90
63897;DHT22;50063;52.084;5.414;2022-10-15T06:45:34;14.00;99.90
63897;DHT22;50063;52.084;5.414;2022-10-15T06:48:05;14.00;99.90
63897;DHT22;50063;52.084;5.414;2022-10-15T06:50:32;14.10;99.90
63897;DHT22;50063;52.084;5.414;2022-10-15T06:52:59;14.10;99.90
63897;DHT22;50063;52.084;5.414;2022-10-15T06:55:26;14.10;99.90
63897;DHT22;50063;52.084;5.414;2022-10-15T06:57:54;14.10;99.90
63897;DHT22;50063;52.084;5.414;2022-10-15T07:00:21;14.20;99.90
63897;DHT22;50063;52.084;5.414;2022-10-15T07:02:49;14.20;99.90
63897;DHT22;50063;52.084;5.414;2022-10-15T07:05:16;14.30;99.90
63897;DHT22;50063;52.084;5.414;2022-10-15T07:07:49;14.30;99.90
63897;DHT22;50063;52.084;5.414;2022-10-15T07:10:16;14.30;99.90
63897;DHT22;50063;52.084;5.414;2022-10-15T07:12:43;14.30;99.90
63897;DHT22;50063;52.084;5.414;2022-10-15T07:15:09;14.40;99.90
63897;DHT22;50063;52.084;5.414;2022-10-15T07:17:36;14.30;99.90
63897;DHT22;50063;52.084;5.414;2022-10-15T07:20:05;14.30;99.90
63897;DHT22;50063;52.084;5.414;2022-10-15T07:22:32;14.50;99.90
63897;DHT22;50063;52.084;5.414;2022-10-15T07:25:01;14.40;99.90
63897;DHT22;50063;52.084;5.414;2022-10-15T07:27:28;14.40;99.90
63897;DHT22;50063;52.084;5.414;2022-10-15T07:29:55;14.50;99.90
63897;DHT22;50063;52.084;5.414;2022-10-15T07:32:21;14.50;99.90
63897;DHT22;50063;52.084;5.414;2022-10-15T07:34:48;14.50;99.90
63897;DHT22;50063;52.084;5.414;2022-10-15T07:37:15;14.50;99.90
63897;DHT22;50063;52.084;5.414;2022-10-15T07:39:42;14.60;99.90
63897;DHT22;50063;52.084;5.414;2022-10-15T07:42:10;14.50;99.90
63897;DHT22;50063;52.084;5.414;2022-10-15T07:44:37;14.60;99.90
63897;DHT22;50063;52.084;5.414;2022-10-15T07:47:03;14.70;99.90
63897;DHT22;50063;52.084;5.414;2022-10-15T07:49:30;14.70;99.90
63897;DHT22;50063;52.084;5.414;2022-10-15T07:51:57;14.80;99.90
63897;DHT22;50063;52.084;5.414;2022-10-15T07:54:23;14.80;99.90
63897;DHT22;50063;52.084;5.414;2022-10-15T07:56:50;14.80;99.90
63897;DHT22;50063;52.084;5.414;2022-10-15T07:59:16;14.90;99.90
63897;DHT22;50063;52.084;5.414;2022-10-15T08:01:43;14.90;99.90
63897;DHT22;50063;52.084;5.414;2022-10-15T08:04:15;15.00;99.90
63897;DHT22;50063;52.084;5.414;2022-10-15T08:06:41;15.00;99.90
63897;DHT22;50063;52.084;5.414;2022-10-15T08:09:11;15.00;99.90
63897;DHT22;50063;52.084;5.414;2022-10-15T08:11:39;15.00;99.90
63897;DHT22;50063;52.084;5.414;2022-10-15T08:14:07;15.10;99.90
63897;DHT22;50063;52.084;5.414;2022-10-15T08:16:34;15.20;99.90
63897;DHT22;50063;52.084;5.414;2022-10-15T08:19:00;15.20;99.90
63897;DHT22;50063;52.084;5.414;2022-10-15T08:21:27;15.20;99.90
63897;DHT22;50063;52.084;5.414;2022-10-15T08:23:56;15.30;99.90
63897;DHT22;50063;52.084;5.414;2022-10-15T08:26:23;15.30;99.90
63897;DHT22;50063;52.084;5.414;2022-10-15T08:28:51;15.30;99.90
63897;DHT22;50063;52.084;5.414;2022-10-15T08:31:18;15.30;99.90
63897;DHT22;50063;52.084;5.414;2022-10-15T08:33:45;15.40;99.90
63897;DHT22;50063;52.084;5.414;2022-10-15T08:36:11;15.40;99.90
63897;DHT22;50063;52.084;5.414;2022-10-15T08:38:38;15.40;99.90
63897;DHT22;50063;52.084;5.414;2022-10-15T08:41:10;15.50;99.90
63897;DHT22;50063;52.084;5.414;2022-10-15T08:43:40;15.50;99.90
63897;DHT22;50063;52.084;5.414;2022-10-15T08:46:12;15.60;99.90
63897;DHT22;50063;52.084;5.414;2022-10-15T08:48:43;15.70;99.90
63897;DHT22;50063;52.084;5.414;2022-10-15T08:51:22;15.80;99.90
63897;DHT22;50063;52.084;5.414;2022-10-15T08:53:51;15.70;99.90
63897;DHT22;50063;52.084;5.414;2022-10-15T08:56:20;15.80;99.90
63897;DHT22;50063;52.084;5.414;2022-10-15T09:01:47;15.90;99.90
63897;DHT22;50063;52.084;5.414;2022-10-15T09:04:16;15.90;99.90
63897;DHT22;50063;52.084;5.414;2022-10-15T09:06:46;16.00;99.90
63897;DHT22;50063;52.084;5.414;2022-10-15T09:09:21;16.00;99.90
63897;DHT22;50063;52.084;5.414;2022-10-15T09:14:35;16.10;99.90
63897;DHT22;50063;52.084;5.414;2022-10-15T09:17:04;16.10;99.90
63897;DHT22;50063;52.084;5.414;2022-10-15T09:19:31;16.20;99.90
63897;DHT22;50063;52.084;5.414;2022-10-15T09:22:00;16.20;99.90
63897;DHT22;50063;52.084;5.414;2022-10-15T09:24:28;16.30;99.90
63897;DHT22;50063;52.084;5.414;2022-10-15T09:29:42;16.50;99.90
63897;DHT22;50063;52.084;5.414;2022-10-15T09:32:22;16.50;99.90
63897;DHT22;50063;52.084;5.414;2022-10-15T09:34:53;16.50;99.90
63897;DHT22;50063;52.084;5.414;2022-10-15T09:37:27;16.50;99.90
63897;DHT22;50063;52.084;5.414;2022-10-15T09:40:15;16.60;99.90
63897;DHT22;50063;52.084;5.414;2022-10-15T09:42:45;16.60;99.90
63897;DHT22;50063;52.084;5.414;2022-10-15T09:45:13;16.70;99.90
63897;DHT22;50063;52.084;5.414;2022-10-15T09:47:41;16.70;99.90
63897;DHT22;50063;52.084;5.414;2022-10-15T09:50:09;16.80;99.90
63897;DHT22;50063;52.084;5.414;2022-10-15T09:55:24;16.90;99.90
63897;DHT22;50063;52.084;5.414;2022-10-15T09:57:56;17.00;99.90
63897;DHT22;50063;52.084;5.414;2022-10-15T10:00:24;17.00;99.90
63897;DHT22;50063;52.084;5.414;2022-10-15T10:03:04;16.90;99.90
63897;DHT22;50063;52.084;5.414;2022-10-15T10:05:32;17.00;99.90
63897;DHT22;50063;52.084;5.414;2022-10-15T10:08:08;17.10;99.90
63897;DHT22;50063;52.084;5.414;2022-10-15T10:10:36;17.10;99.90
63897;DHT22;50063;52.084;5.414;2022-10-15T10:13:06;17.10;99.90
63897;DHT22;50063;52.084;5.414;2022-10-15T10:15:34;17.10;99.90
63897;DHT22;50063;52.084;5.414;2022-10-15T10:18:02;17.10;99.90
63897;DHT22;50063;52.084;5.414;2022-10-15T10:20:32;17.10;99.90
63897;DHT22;50063;52.084;5.414;2022-10-15T10:23:00;17.10;99.90
63897;DHT22;50063;52.084;5.414;2022-10-15T10:28:03;16.80;99.90
63897;DHT22;50063;52.084;5.414;2022-10-15T10:30:31;16.80;99.90
63897;DHT22;50063;52.084;5.414;2022-10-15T10:32:58;16.80;99.90
63897;DHT22;50063;52.084;5.414;2022-10-15T10:35:27;16.90;99.90
63897;DHT22;50063;52.084;5.414;2022-10-15T10:37:55;16.90;99.90
63897;DHT22;50063;52.084;5.414;2022-10-15T10:40:31;16.90;99.90
63897;DHT22;50063;52.084;5.414;2022-10-15T10:43:10;16.90;99.90
63897;DHT22;50063;52.084;5.414;2022-10-15T10:45:37;16.90;99.90
63897;DHT22;50063;52.084;5.414;2022-10-15T10:48:16;16.90;99.90
63897;DHT22;50063;52.084;5.414;2022-10-15T10:50:43;16.90;99.90
63897;DHT22;50063;52.084;5.414;2022-10-15T10:53:20;17.00;99.90
63897;DHT22;50063;52.084;5.414;2022-10-15T10:55:47;16.90;99.90
63897;DHT22;50063;52.084;5.414;2022-10-15T10:58:17;16.90;99.90
63897;DHT22;50063;52.084;5.414;2022-10-15T11:00:51;16.70;99.90
63897;DHT22;50063;52.084;5.414;2022-10-15T11:03:25;16.70;99.90
63897;DHT22;50063;52.084;5.414;2022-10-15T11:05:57;16.70;99.90
63897;DHT22;50063;52.084;5.414;2022-10-15T11:08:30;16.70;99.90
63897;DHT22;50063;52.084;5.414;2022-10-15T11:11:03;16.60;99.90
63897;DHT22;50063;52.084;5.414;2022-10-15T11:13:44;16.60;99.90
63897;DHT22;50063;52.084;5.414;2022-10-15T11:19:08;16.70;99.90
63897;DHT22;50063;52.084;5.414;2022-10-15T11:24:42;16.60;99.90
63897;DHT22;50063;52.084;5.414;2022-10-15T11:38:24;16.80;99.90
63897;DHT22;50063;52.084;5.414;2022-10-15T11:46:12;16.70;99.90
63897;DHT22;50063;52.084;5.414;2022-10-15T11:48:45;16.70;99.90
63897;DHT22;50063;52.084;5.414;2022-10-15T11:56:12;16.80;99.90
63897;DHT22;50063;52.084;5.414;2022-10-15T11:58:44;16.80;99.90
63897;DHT22;50063;52.084;5.414;2022-10-15T12:01:25;16.80;99.90
63897;DHT22;50063;52.084;5.414;2022-10-15T12:03:53;16.90;99.90
63897;DHT22;50063;52.084;5.414;2022-10-15T12:06:21;16.90;99.90
63897;DHT22;50063;52.084;5.414;2022-10-15T12:08:50;16.80;99.90
63897;DHT22;50063;52.084;5.414;2022-10-15T12:11:26;16.90;99.90
63897;DHT22;50063;52.084;5.414;2022-10-15T12:14:13;17.00;99.90
63897;DHT22;50063;52.084;5.414;2022-10-15T12:16:45;17.00;99.90
63897;DHT22;50063;52.084;5.414;2022-10-15T12:19:17;17.00;99.90
63897;DHT22;50063;52.084;5.414;2022-10-15T12:29:48;17.10;99.90
63897;DHT22;50063;52.084;5.414;2022-10-15T12:32:22;17.20;99.90
63897;DHT22;50063;52.084;5.414;2022-10-15T12:35:16;17.10;99.90
63897;DHT22;50063;52.084;5.414;2022-10-15T12:37:39;17.20;99.90
63897;DHT22;50063;52.084;5.414;2022-10-15T12:40:24;17.20;99.90
63897;DHT22;50063;52.084;5.414;2022-10-15T12:45:21;17.30;99.90
63897;DHT22;50063;52.084;5.414;2022-10-15T12:47:52;17.30;99.90
63897;DHT22;50063;52.084;5.414;2022-10-15T12:50:21;17.30;99.90
63897;DHT22;50063;52.084;5.414;2022-10-15T12:55:19;17.20;99.90
63897;DHT22;50063;52.084;5.414;2022-10-15T13:02:51;17.30;99.90
63897;DHT22;50063;52.084;5.414;2022-10-15T13:05:25;17.40;99.90
63897;DHT22;50063;52.084;5.414;2022-10-15T13:07:52;17.30;99.90
63897;DHT22;50063;52.084;5.414;2022-10-15T13:10:26;17.20;99.90
63897;DHT22;50063;52.084;5.414;2022-10-15T13:12:58;17.30;99.90
63897;DHT22;50063;52.084;5.414;2022-10-15T13:15:27;17.30;99.90
63897;DHT22;50063;52.084;5.414;2022-10-15T13:17:55;17.20;99.90
63897;DHT22;50063;52.084;5.414;2022-10-15T13:20:27;17.20;99.90
63897;DHT22;50063;52.084;5.414;2022-10-15T13:23:05;17.20;99.90
63897;DHT22;50063;52.084;5.414;2022-10-15T13:28:38;17.40;99.90
63897;DHT22;50063;52.084;5.414;2022-10-15T13:31:14;17.30;99.90
63897;DHT22;50063;52.084;5.414;2022-10-15T13:33:42;17.40;99.90
63897;DHT22;50063;52.084;5.414;2022-10-15T13:36:23;17.30;99.90
63897;DHT22;50063;52.084;5.414;2022-10-15T13:38:51;17.40;99.90
63897;DHT22;50063;52.084;5.414;2022-10-15T13:41:22;17.50;99.90
63897;DHT22;50063;52.084;5.414;2022-10-15T13:43:49;17.60;99.90
63897;DHT22;50063;52.084;5.414;2022-10-15T13:46:16;17.60;99.90
63897;DHT22;50063;52.084;5.414;2022-10-15T13:48:43;17.50;99.90
63897;DHT22;50063;52.084;5.414;2022-10-15T13:51:09;17.50;99.90
63897;DHT22;50063;52.084;5.414;2022-10-15T13:53:39;17.50;99.90
63897;DHT22;50063;52.084;5.414;2022-10-15T13:58:56;17.40;99.90
63897;DHT22;50063;52.084;5.414;2022-10-15T14:01:26;17.40;99.90
63897;DHT22;50063;52.084;5.414;2022-10-15T14:06:34;17.50;99.90
63897;DHT22;50063;52.084;5.414;2022-10-15T14:11:38;17.60;99.90
63897;DHT22;50063;52.084;5.414;2022-10-15T14:14:26;17.60;99.90
63897;DHT22;50063;52.084;5.414;2022-10-15T14:16:52;17.60;99.90
63897;DHT22;50063;52.084;5.414;2022-10-15T14:19:20;17.60;99.90
63897;DHT22;50063;52.084;5.414;2022-10-15T14:21:52;17.70;99.90
63897;DHT22;50063;52.084;5.414;2022-10-15T14:24:22;17.70;99.90
63897;DHT22;50063;52.084;5.414;2022-10-15T14:26:50;17.70;99.90
63897;DHT22;50063;52.084;5.414;2022-10-15T14:31:46;18.00;99.90
63897;DHT22;50063;52.084;5.414;2022-10-15T14:36:58;18.40;99.90
63897;DHT22;50063;52.084;5.414;2022-10-15T14:39:32;18.20;99.90
63897;DHT22;50063;52.084;5.414;2022-10-15T14:42:03;19.00;99.90
63897;DHT22;50063;52.084;5.414;2022-10-15T14:44:44;19.00;99.90
63897;DHT22;50063;52.084;5.414;2022-10-15T14:47:19;19.00;99.90
63897;DHT22;50063;52.084;5.414;2022-10-15T14:49:46;18.60;99.90
63897;DHT22;50063;52.084;5.414;2022-10-15T14:52:16;18.40;99.90
63897;DHT22;50063;52.084;5.414;2022-10-15T14:54:56;18.20;99.90
63897;DHT22;50063;52.084;5.414;2022-10-15T14:57:28;17.90;99.90
63897;DHT22;50063;52.084;5.414;2022-10-15T14:59:55;18.00;99.90
63897;DHT22;50063;52.084;5.414;2022-10-15T15:02:23;18.00;99.90
63897;DHT22;50063;52.084;5.414;2022-10-15T15:05:03;18.00;99.90
63897;DHT22;50063;52.084;5.414;2022-10-15T15:07:32;17.70;99.90
63897;DHT22;50063;52.084;5.414;2022-10-15T15:09:58;18.50;99.90
63897;DHT22;50063;52.084;5.414;2022-10-15T15:12:25;18.10;99.90
63897;DHT22;50063;52.084;5.414;2022-10-15T15:14:53;17.80;99.90
63897;DHT22;50063;52.084;5.414;2022-10-15T15:17:23;17.70;99.90
63897;DHT22;50063;52.084;5.414;2022-10-15T15:19:51;17.70;99.90
63897;DHT22;50063;52.084;5.414;2022-10-15T15:22:20;17.80;99.90
63897;DHT22;50063;52.084;5.414;2022-10-15T15:24:49;17.40;99.90
63897;DHT22;50063;52.084;5.414;2022-10-15T15:27:24;17.20;99.90
63897;DHT22;50063;52.084;5.414;2022-10-15T15:29:51;17.00;99.90
63897;DHT22;50063;52.084;5.414;2022-10-15T15:32:17;17.10;99.90
63897;DHT22;50063;52.084;5.414;2022-10-15T15:34:44;16.90;99.90
63897;DHT22;50063;52.084;5.414;2022-10-15T15:37:12;16.90;99.90
63897;DHT22;50063;52.084;5.414;2022-10-15T15:39:39;16.70;99.90
63897;DHT22;50063;52.084;5.414;2022-10-15T15:42:06;16.90;99.90
63897;DHT22;50063;52.084;5.414;2022-10-15T15:44:32;16.70;99.90
63897;DHT22;50063;52.084;5.414;2022-10-15T15:46:59;16.60;99.90
63897;DHT22;50063;52.084;5.414;2022-10-15T15:49:25;16.70;99.90
63897;DHT22;50063;52.084;5.414;2022-10-15T15:51:52;16.70;99.90
63897;DHT22;50063;52.084;5.414;2022-10-15T15:54:18;16.70;99.90
63897;DHT22;50063;52.084;5.414;2022-10-15T15:56:45;16.70;99.90
63897;DHT22;50063;52.084;5.414;2022-10-15T15:59:11;16.70;99.90
63897;DHT22;50063;52.084;5.414;2022-10-15T16:01:38;16.70;99.90
63897;DHT22;50063;52.084;5.414;2022-10-15T16:04:04;16.60;99.90
63897;DHT22;50063;52.084;5.414;2022-10-15T16:06:31;16.60;99.90
63897;DHT22;50063;52.084;5.414;2022-10-15T16:08:57;16.50;99.90
63897;DHT22;50063;52.084;5.414;2022-10-15T16:11:27;16.50;99.90
63897;DHT22;50063;52.084;5.414;2022-10-15T16:13:54;16.40;99.90
63897;DHT22;50063;52.084;5.414;2022-10-15T16:16:20;16.40;99.90
63897;DHT22;50063;52.084;5.414;2022-10-15T16:18:47;16.30;99.90
63897;DHT22;50063;52.084;5.414;2022-10-15T16:21:13;16.30;99.90
63897;DHT22;50063;52.084;5.414;2022-10-15T16:23:45;16.10;99.90
63897;DHT22;50063;52.084;5.414;2022-10-15T16:26:12;16.10;99.90
63897;DHT22;50063;52.084;5.414;2022-10-15T16:28:38;16.10;99.90
63897;DHT22;50063;52.084;5.414;2022-10-15T16:31:18;16.10;99.90
63897;DHT22;50063;52.084;5.414;2022-10-15T16:33:45;16.00;99.90
63897;DHT22;50063;52.084;5.414;2022-10-15T16:36:12;16.00;99.90
63897;DHT22;50063;52.084;5.414;2022-10-15T16:38:39;16.00;99.90
63897;DHT22;50063;52.084;5.414;2022-10-15T16:41:06;15.90;99.90
63897;DHT22;50063;52.084;5.414;2022-10-15T16:43:33;15.80;99.90
63897;DHT22;50063;52.084;5.414;2022-10-15T16:46:00;15.70;99.90
63897;DHT22;50063;52.084;5.414;2022-10-15T16:48:28;15.70;99.90
63897;DHT22;50063;52.084;5.414;2022-10-15T16:50:59;15.60;99.90
63897;DHT22;50063;52.084;5.414;2022-10-15T16:53:25;15.50;99.90
63897;DHT22;50063;52.084;5.414;2022-10-15T16:55:52;15.50;99.90
63897;DHT22;50063;52.084;5.414;2022-10-15T16:58:19;15.50;99.90
63897;DHT22;50063;52.084;5.414;2022-10-15T17:00:45;15.40;99.90
63897;DHT22;50063;52.084;5.414;2022-10-15T17:03:12;15.30;99.90
63897;DHT22;50063;52.084;5.414;2022-10-15T17:05:39;15.30;99.90
63897;DHT22;50063;52.084;5.414;2022-10-15T17:08:05;15.20;99.90
63897;DHT22;50063;52.084;5.414;2022-10-15T17:10:41;15.10;99.90
63897;DHT22;50063;52.084;5.414;2022-10-15T17:13:08;15.10;99.90
63897;DHT22;50063;52.084;5.414;2022-10-15T17:15:35;15.10;99.90